<?xml version="1.0" encoding="UTF-8" standalone="no" ?>
<gpx xmlns="http://www.topografix.com/GPX/1/1" xmlns:xsi="http://www.w3.org/2001/XMLSchema-instance" xsi:schemaLocation="http://www.topografix.com/GPX/1/1 http://www.topografix.com/GPX/1/1/gpx.xsd" version="1.1" creator="VisuGPX - https://www.visugpx.com">
  <metadata>
    <name>De vallée en vallée</name>
    <desc><![CDATA[À travers les vallées de Bilstain, Limbourg et Andrimont.
]]></desc>
  </metadata>
  <trk>
    <name><![CDATA[Randonnée du 18/06/2020 à 21:26]]></name>
    <trkseg>
      <trkpt lat="50.62112" lon="5.92146">
        <ele>264</ele>
        <time>2020-06-18T21:51:45+02:00</time>
      </trkpt>
      <trkpt lat="50.62082" lon="5.92028">
        <ele>262</ele>
        <time>2020-06-18T21:51:50+02:00</time>
      </trkpt>
      <trkpt lat="50.62059" lon="5.92011">
        <ele>263</ele>
        <time>2020-06-18T21:51:55+02:00</time>
      </trkpt>
      <trkpt lat="50.6195" lon="5.92084">
        <ele>270</ele>
        <time>2020-06-18T21:52:00+02:00</time>
      </trkpt>
      <trkpt lat="50.61912" lon="5.92142">
        <ele>270</ele>
        <time>2020-06-18T21:52:05+02:00</time>
      </trkpt>
      <trkpt lat="50.61924" lon="5.92183">
        <ele>268</ele>
        <time>2020-06-18T21:52:10+02:00</time>
      </trkpt>
      <trkpt lat="50.61881" lon="5.9223">
        <ele>266</ele>
        <time>2020-06-18T21:52:15+02:00</time>
      </trkpt>
      <trkpt lat="50.6186" lon="5.92305">
        <ele>264</ele>
        <time>2020-06-18T21:52:20+02:00</time>
      </trkpt>
      <trkpt lat="50.61853" lon="5.92419">
        <ele>259</ele>
        <time>2020-06-18T21:52:25+02:00</time>
      </trkpt>
      <trkpt lat="50.61851" lon="5.92459">
        <ele>257</ele>
        <time>2020-06-18T21:52:30+02:00</time>
      </trkpt>
      <trkpt lat="50.61822" lon="5.92453">
        <ele>254</ele>
        <time>2020-06-18T21:52:35+02:00</time>
      </trkpt>
      <trkpt lat="50.61798" lon="5.92489">
        <ele>250</ele>
        <time>2020-06-18T21:52:40+02:00</time>
      </trkpt>
      <trkpt lat="50.61607" lon="5.92539">
        <ele>230</ele>
        <time>2020-06-18T21:52:45+02:00</time>
      </trkpt>
      <trkpt lat="50.61521" lon="5.92507">
        <ele>212</ele>
        <time>2020-06-18T21:52:50+02:00</time>
      </trkpt>
      <trkpt lat="50.61501" lon="5.92462">
        <ele>211</ele>
        <time>2020-06-18T21:52:55+02:00</time>
      </trkpt>
      <trkpt lat="50.61416" lon="5.92374">
        <ele>201</ele>
        <time>2020-06-18T21:53:00+02:00</time>
      </trkpt>
      <trkpt lat="50.61356" lon="5.92301">
        <ele>199</ele>
        <time>2020-06-18T21:53:05+02:00</time>
      </trkpt>
      <trkpt lat="50.61309" lon="5.92213">
        <ele>201</ele>
        <time>2020-06-18T21:53:10+02:00</time>
      </trkpt>
      <trkpt lat="50.61283" lon="5.92193">
        <ele>197</ele>
        <time>2020-06-18T21:53:15+02:00</time>
      </trkpt>
      <trkpt lat="50.61241" lon="5.92198">
        <ele>190</ele>
        <time>2020-06-18T21:53:20+02:00</time>
      </trkpt>
      <trkpt lat="50.61181" lon="5.92215">
        <ele>191</ele>
        <time>2020-06-18T21:53:25+02:00</time>
      </trkpt>
      <trkpt lat="50.61154" lon="5.92215">
        <ele>191</ele>
        <time>2020-06-18T21:53:30+02:00</time>
      </trkpt>
      <trkpt lat="50.61096" lon="5.92189">
        <ele>190</ele>
        <time>2020-06-18T21:53:35+02:00</time>
      </trkpt>
      <trkpt lat="50.61072" lon="5.92193">
        <ele>191</ele>
        <time>2020-06-18T21:53:40+02:00</time>
      </trkpt>
      <trkpt lat="50.61049" lon="5.92238">
        <ele>194</ele>
        <time>2020-06-18T21:53:45+02:00</time>
      </trkpt>
      <trkpt lat="50.60976" lon="5.92309">
        <ele>197</ele>
        <time>2020-06-18T21:53:50+02:00</time>
      </trkpt>
      <trkpt lat="50.6123" lon="5.92878">
        <ele>215</ele>
        <time>2020-06-18T21:53:55+02:00</time>
      </trkpt>
      <trkpt lat="50.61171" lon="5.92925">
        <ele>223</ele>
        <time>2020-06-18T21:54:00+02:00</time>
      </trkpt>
      <trkpt lat="50.61163" lon="5.9303">
        <ele>238</ele>
        <time>2020-06-18T21:54:05+02:00</time>
      </trkpt>
      <trkpt lat="50.61175" lon="5.93112">
        <ele>245</ele>
        <time>2020-06-18T21:54:10+02:00</time>
      </trkpt>
      <trkpt lat="50.6116" lon="5.9323">
        <ele>254</ele>
        <time>2020-06-18T21:54:15+02:00</time>
      </trkpt>
      <trkpt lat="50.61145" lon="5.93255">
        <ele>258</ele>
        <time>2020-06-18T21:54:20+02:00</time>
      </trkpt>
      <trkpt lat="50.61136" lon="5.93391">
        <ele>263</ele>
        <time>2020-06-18T21:54:25+02:00</time>
      </trkpt>
      <trkpt lat="50.61119" lon="5.93419">
        <ele>266</ele>
        <time>2020-06-18T21:54:30+02:00</time>
      </trkpt>
      <trkpt lat="50.61114" lon="5.93485">
        <ele>268</ele>
        <time>2020-06-18T21:54:35+02:00</time>
      </trkpt>
      <trkpt lat="50.61016" lon="5.9353">
        <ele>278</ele>
        <time>2020-06-18T21:54:40+02:00</time>
      </trkpt>
      <trkpt lat="50.61004" lon="5.93588">
        <ele>276</ele>
        <time>2020-06-18T21:54:45+02:00</time>
      </trkpt>
      <trkpt lat="50.6099" lon="5.93584">
        <ele>277</ele>
        <time>2020-06-18T21:54:50+02:00</time>
      </trkpt>
      <trkpt lat="50.60968" lon="5.93528">
        <ele>277</ele>
        <time>2020-06-18T21:54:55+02:00</time>
      </trkpt>
      <trkpt lat="50.6091" lon="5.93562">
        <ele>275</ele>
        <time>2020-06-18T21:55:00+02:00</time>
      </trkpt>
      <trkpt lat="50.60848" lon="5.93365">
        <ele>269</ele>
        <time>2020-06-18T21:55:05+02:00</time>
      </trkpt>
      <trkpt lat="50.60853" lon="5.93255">
        <ele>267</ele>
        <time>2020-06-18T21:55:10+02:00</time>
      </trkpt>
      <trkpt lat="50.60851" lon="5.9315">
        <ele>259</ele>
        <time>2020-06-18T21:55:15+02:00</time>
      </trkpt>
      <trkpt lat="50.6084" lon="5.93092">
        <ele>254</ele>
        <time>2020-06-18T21:55:20+02:00</time>
      </trkpt>
      <trkpt lat="50.60853" lon="5.92955">
        <ele>243</ele>
        <time>2020-06-18T21:55:25+02:00</time>
      </trkpt>
      <trkpt lat="50.60857" lon="5.92798">
        <ele>224</ele>
        <time>2020-06-18T21:55:30+02:00</time>
      </trkpt>
      <trkpt lat="50.60854" lon="5.92749">
        <ele>221</ele>
        <time>2020-06-18T21:55:35+02:00</time>
      </trkpt>
      <trkpt lat="50.60884" lon="5.92693">
        <ele>216</ele>
        <time>2020-06-18T21:55:40+02:00</time>
      </trkpt>
      <trkpt lat="50.60878" lon="5.92582">
        <ele>213</ele>
        <time>2020-06-18T21:55:45+02:00</time>
      </trkpt>
      <trkpt lat="50.6087" lon="5.92554">
        <ele>212</ele>
        <time>2020-06-18T21:55:50+02:00</time>
      </trkpt>
      <trkpt lat="50.60816" lon="5.92466">
        <ele>213</ele>
        <time>2020-06-18T21:55:55+02:00</time>
      </trkpt>
      <trkpt lat="50.60797" lon="5.92324">
        <ele>212</ele>
        <time>2020-06-18T21:56:00+02:00</time>
      </trkpt>
      <trkpt lat="50.60775" lon="5.92268">
        <ele>216</ele>
        <time>2020-06-18T21:56:05+02:00</time>
      </trkpt>
      <trkpt lat="50.6079" lon="5.92133">
        <ele>221</ele>
        <time>2020-06-18T21:56:10+02:00</time>
      </trkpt>
      <trkpt lat="50.60812" lon="5.92032">
        <ele>218</ele>
        <time>2020-06-18T21:56:15+02:00</time>
      </trkpt>
      <trkpt lat="50.60809" lon="5.91932">
        <ele>217</ele>
        <time>2020-06-18T21:56:20+02:00</time>
      </trkpt>
      <trkpt lat="50.60813" lon="5.9185">
        <ele>212</ele>
        <time>2020-06-18T21:56:25+02:00</time>
      </trkpt>
      <trkpt lat="50.60782" lon="5.9173">
        <ele>215</ele>
        <time>2020-06-18T21:56:30+02:00</time>
      </trkpt>
      <trkpt lat="50.60708" lon="5.91552">
        <ele>210</ele>
        <time>2020-06-18T21:56:35+02:00</time>
      </trkpt>
      <trkpt lat="50.60676" lon="5.91466">
        <ele>201</ele>
        <time>2020-06-18T21:56:40+02:00</time>
      </trkpt>
      <trkpt lat="50.60661" lon="5.91402">
        <ele>194</ele>
        <time>2020-06-18T21:56:45+02:00</time>
      </trkpt>
      <trkpt lat="50.60629" lon="5.91354">
        <ele>190</ele>
        <time>2020-06-18T21:56:50+02:00</time>
      </trkpt>
      <trkpt lat="50.60625" lon="5.91305">
        <ele>188</ele>
        <time>2020-06-18T21:56:55+02:00</time>
      </trkpt>
      <trkpt lat="50.6064" lon="5.91288">
        <ele>187</ele>
        <time>2020-06-18T21:57:00+02:00</time>
      </trkpt>
      <trkpt lat="50.60628" lon="5.91196">
        <ele>189</ele>
        <time>2020-06-18T21:57:05+02:00</time>
      </trkpt>
      <trkpt lat="50.60651" lon="5.91112">
        <ele>191</ele>
        <time>2020-06-18T21:57:10+02:00</time>
      </trkpt>
      <trkpt lat="50.60686" lon="5.91082">
        <ele>188</ele>
        <time>2020-06-18T21:57:15+02:00</time>
      </trkpt>
      <trkpt lat="50.60764" lon="5.91043">
        <ele>185</ele>
        <time>2020-06-18T21:57:20+02:00</time>
      </trkpt>
      <trkpt lat="50.60775" lon="5.91037">
        <ele>186</ele>
        <time>2020-06-18T21:57:25+02:00</time>
      </trkpt>
      <trkpt lat="50.60776" lon="5.91093">
        <ele>182</ele>
        <time>2020-06-18T21:57:30+02:00</time>
      </trkpt>
      <trkpt lat="50.60752" lon="5.91168">
        <ele>179</ele>
        <time>2020-06-18T21:57:35+02:00</time>
      </trkpt>
      <trkpt lat="50.60757" lon="5.91204">
        <ele>180</ele>
        <time>2020-06-18T21:57:40+02:00</time>
      </trkpt>
      <trkpt lat="50.60795" lon="5.91213">
        <ele>182</ele>
        <time>2020-06-18T21:57:45+02:00</time>
      </trkpt>
      <trkpt lat="50.60824" lon="5.912">
        <ele>184</ele>
        <time>2020-06-18T21:57:50+02:00</time>
      </trkpt>
      <trkpt lat="50.60853" lon="5.91155">
        <ele>188</ele>
        <time>2020-06-18T21:57:55+02:00</time>
      </trkpt>
      <trkpt lat="50.60912" lon="5.91148">
        <ele>197</ele>
        <time>2020-06-18T21:58:00+02:00</time>
      </trkpt>
      <trkpt lat="50.60914" lon="5.91073">
        <ele>202</ele>
        <time>2020-06-18T21:58:05+02:00</time>
      </trkpt>
      <trkpt lat="50.60964" lon="5.91043">
        <ele>206</ele>
        <time>2020-06-18T21:58:10+02:00</time>
      </trkpt>
      <trkpt lat="50.61043" lon="5.90831">
        <ele>226</ele>
        <time>2020-06-18T21:58:15+02:00</time>
      </trkpt>
      <trkpt lat="50.61064" lon="5.9076">
        <ele>228</ele>
        <time>2020-06-18T21:58:20+02:00</time>
      </trkpt>
      <trkpt lat="50.61042" lon="5.90681">
        <ele>233</ele>
        <time>2020-06-18T21:58:25+02:00</time>
      </trkpt>
      <trkpt lat="50.61073" lon="5.90365">
        <ele>239</ele>
        <time>2020-06-18T21:58:30+02:00</time>
      </trkpt>
      <trkpt lat="50.61073" lon="5.90311">
        <ele>241</ele>
        <time>2020-06-18T21:58:35+02:00</time>
      </trkpt>
      <trkpt lat="50.61113" lon="5.90275">
        <ele>246</ele>
        <time>2020-06-18T21:58:40+02:00</time>
      </trkpt>
      <trkpt lat="50.61152" lon="5.90279">
        <ele>251</ele>
        <time>2020-06-18T21:58:45+02:00</time>
      </trkpt>
      <trkpt lat="50.61174" lon="5.90331">
        <ele>251</ele>
        <time>2020-06-18T21:58:50+02:00</time>
      </trkpt>
      <trkpt lat="50.61223" lon="5.90206">
        <ele>267</ele>
        <time>2020-06-18T21:58:55+02:00</time>
      </trkpt>
      <trkpt lat="50.61271" lon="5.90251">
        <ele>270</ele>
        <time>2020-06-18T21:59:00+02:00</time>
      </trkpt>
      <trkpt lat="50.61321" lon="5.90269">
        <ele>274</ele>
        <time>2020-06-18T21:59:05+02:00</time>
      </trkpt>
      <trkpt lat="50.61385" lon="5.90189">
        <ele>278</ele>
        <time>2020-06-18T21:59:10+02:00</time>
      </trkpt>
      <trkpt lat="50.6139" lon="5.9014">
        <ele>279</ele>
        <time>2020-06-18T21:59:15+02:00</time>
      </trkpt>
      <trkpt lat="50.61386" lon="5.90037">
        <ele>282</ele>
        <time>2020-06-18T21:59:20+02:00</time>
      </trkpt>
      <trkpt lat="50.61441" lon="5.90159">
        <ele>278</ele>
        <time>2020-06-18T21:59:25+02:00</time>
      </trkpt>
      <trkpt lat="50.61495" lon="5.90382">
        <ele>270</ele>
        <time>2020-06-18T21:59:30+02:00</time>
      </trkpt>
      <trkpt lat="50.61529" lon="5.90402">
        <ele>268</ele>
        <time>2020-06-18T21:59:35+02:00</time>
      </trkpt>
      <trkpt lat="50.61557" lon="5.90524">
        <ele>266</ele>
        <time>2020-06-18T21:59:40+02:00</time>
      </trkpt>
      <trkpt lat="50.61604" lon="5.90565">
        <ele>263</ele>
        <time>2020-06-18T21:59:45+02:00</time>
      </trkpt>
      <trkpt lat="50.6165" lon="5.9059">
        <ele>257</ele>
        <time>2020-06-18T21:59:50+02:00</time>
      </trkpt>
      <trkpt lat="50.61705" lon="5.90693">
        <ele>255</ele>
        <time>2020-06-18T21:59:55+02:00</time>
      </trkpt>
      <trkpt lat="50.6177" lon="5.90659">
        <ele>250</ele>
        <time>2020-06-18T22:00:00+02:00</time>
      </trkpt>
      <trkpt lat="50.61796" lon="5.90687">
        <ele>245</ele>
        <time>2020-06-18T22:00:05+02:00</time>
      </trkpt>
      <trkpt lat="50.61883" lon="5.90818">
        <ele>222</ele>
        <time>2020-06-18T22:00:10+02:00</time>
      </trkpt>
      <trkpt lat="50.61889" lon="5.90854">
        <ele>221</ele>
        <time>2020-06-18T22:00:15+02:00</time>
      </trkpt>
      <trkpt lat="50.61875" lon="5.90899">
        <ele>220</ele>
        <time>2020-06-18T22:00:20+02:00</time>
      </trkpt>
      <trkpt lat="50.61883" lon="5.90919">
        <ele>221</ele>
        <time>2020-06-18T22:00:25+02:00</time>
      </trkpt>
      <trkpt lat="50.61972" lon="5.90758">
        <ele>228</ele>
        <time>2020-06-18T22:00:30+02:00</time>
      </trkpt>
      <trkpt lat="50.62017" lon="5.90629">
        <ele>228</ele>
        <time>2020-06-18T22:00:35+02:00</time>
      </trkpt>
      <trkpt lat="50.62045" lon="5.90569">
        <ele>229</ele>
        <time>2020-06-18T22:00:40+02:00</time>
      </trkpt>
      <trkpt lat="50.62088" lon="5.90554">
        <ele>225</ele>
        <time>2020-06-18T22:00:45+02:00</time>
      </trkpt>
      <trkpt lat="50.62201" lon="5.90543">
        <ele>229</ele>
        <time>2020-06-18T22:00:50+02:00</time>
      </trkpt>
      <trkpt lat="50.62299" lon="5.90539">
        <ele>232</ele>
        <time>2020-06-18T22:00:55+02:00</time>
      </trkpt>
      <trkpt lat="50.62352" lon="5.90651">
        <ele>234</ele>
        <time>2020-06-18T22:01:00+02:00</time>
      </trkpt>
      <trkpt lat="50.62356" lon="5.90726">
        <ele>238</ele>
        <time>2020-06-18T22:01:05+02:00</time>
      </trkpt>
      <trkpt lat="50.62327" lon="5.9067">
        <ele>237</ele>
        <time>2020-06-18T22:01:10+02:00</time>
      </trkpt>
      <trkpt lat="50.62285" lon="5.90635">
        <ele>243</ele>
        <time>2020-06-18T22:01:15+02:00</time>
      </trkpt>
      <trkpt lat="50.62294" lon="5.90698">
        <ele>249</ele>
        <time>2020-06-18T22:01:20+02:00</time>
      </trkpt>
      <trkpt lat="50.62243" lon="5.907">
        <ele>262</ele>
        <time>2020-06-18T22:01:25+02:00</time>
      </trkpt>
      <trkpt lat="50.62199" lon="5.90749">
        <ele>274</ele>
        <time>2020-06-18T22:01:30+02:00</time>
      </trkpt>
      <trkpt lat="50.62141" lon="5.9076">
        <ele>274</ele>
        <time>2020-06-18T22:01:35+02:00</time>
      </trkpt>
      <trkpt lat="50.62082" lon="5.90876">
        <ele>274</ele>
        <time>2020-06-18T22:01:40+02:00</time>
      </trkpt>
      <trkpt lat="50.62066" lon="5.90957">
        <ele>269</ele>
        <time>2020-06-18T22:01:45+02:00</time>
      </trkpt>
      <trkpt lat="50.62086" lon="5.91097">
        <ele>263</ele>
        <time>2020-06-18T22:01:50+02:00</time>
      </trkpt>
      <trkpt lat="50.62123" lon="5.91211">
        <ele>261</ele>
        <time>2020-06-18T22:01:55+02:00</time>
      </trkpt>
      <trkpt lat="50.62123" lon="5.91339">
        <ele>255</ele>
        <time>2020-06-18T22:02:00+02:00</time>
      </trkpt>
      <trkpt lat="50.62115" lon="5.91406">
        <ele>252</ele>
        <time>2020-06-18T22:02:05+02:00</time>
      </trkpt>
      <trkpt lat="50.62115" lon="5.91489">
        <ele>250</ele>
        <time>2020-06-18T22:02:10+02:00</time>
      </trkpt>
      <trkpt lat="50.62137" lon="5.9158">
        <ele>249</ele>
        <time>2020-06-18T22:02:15+02:00</time>
      </trkpt>
      <trkpt lat="50.6215" lon="5.91631">
        <ele>249</ele>
        <time>2020-06-18T22:02:20+02:00</time>
      </trkpt>
      <trkpt lat="50.62194" lon="5.91704">
        <ele>252</ele>
        <time>2020-06-18T22:02:25+02:00</time>
      </trkpt>
      <trkpt lat="50.62255" lon="5.91977">
        <ele>256</ele>
        <time>2020-06-18T22:02:30+02:00</time>
      </trkpt>
      <trkpt lat="50.62202" lon="5.92026">
        <ele>259</ele>
        <time>2020-06-18T22:02:35+02:00</time>
      </trkpt>
      <trkpt lat="50.62205" lon="5.92125">
        <ele>261</ele>
        <time>2020-06-18T22:02:40+02:00</time>
      </trkpt>
      <trkpt lat="50.62158" lon="5.92217">
        <ele>263</ele>
        <time>2020-06-18T22:02:45+02:00</time>
      </trkpt>
      <trkpt lat="50.62117" lon="5.92148">
        <ele>264</ele>
        <time>2020-06-18T22:02:50+02:00</time>
      </trkpt>
    </trkseg>
  </trk>
</gpx>